Time;durP1;ratioP1;P1;durP2;ratioP2;P2;SDS_P1;SDS_P2;PMS_P1;PMS_P2;Temp;Humidity;BMP_temperature;BMP_pressure;BME280_temperature;BME280_humidity;BME280_pressure;Samples;Min_cycle;Max_cycle;Signal;HPM_P1;HPM_P2
2021/10/01 00:03:58;;;;;;;12.82;8.20;;;;;;;10.74;100.00;95682.06;10216110;28;20031;-68
2021/10/01 00:08:58;;;;;;;14.23;7.88;;;;;;;10.73;100.00;95666.97;10215611;29;20028;-73
2021/10/01 00:13:59;;;;;;;16.67;8.20;;;;;;;10.75;100.00;95667.53;10215852;29;20041;-70
2021/10/01 00:18:59;;;;;;;15.73;8.52;;;;;;;10.64;100.00;95670.38;10215133;29;20056;-73
2021/10/01 00:24:00;;;;;;;15.70;8.15;;;;;;;10.71;100.00;95660.22;10215692;28;20039;-68
2021/10/01 00:29:00;;;;;;;16.45;8.45;;;;;;;10.66;100.00;95663.69;10215281;29;20082;-71
2021/10/01 00:34:02;;;;;;;12.60;7.38;;;;;;;10.69;100.00;95655.09;10198655;29;20114;-71
2021/10/01 00:39:05;;;;;;;15.27;8.73;;;;;;;10.63;100.00;95653.41;10200349;29;20470;-71
2021/10/01 00:44:06;;;;;;;13.40;8.18;;;;;;;10.56;100.00;95658.16;10214364;29;20093;-70
2021/10/01 00:49:06;;;;;;;17.35;8.40;;;;;;;10.60;100.00;95659.28;10214578;29;20126;-68
2021/10/01 00:54:09;;;;;;;14.82;8.63;;;;;;;10.65;100.00;95653.19;10199495;28;20091;-69
2021/10/01 00:59:09;;;;;;;14.13;8.13;;;;;;;10.73;100.00;95653.53;10199466;29;20048;-67
2021/10/01 01:04:10;;;;;;;14.52;8.38;;;;;;;10.83;100.00;95652.00;10214358;29;20107;-70
2021/10/01 01:09:30;;;;;;;18.88;7.85;;;;;;;10.81;100.00;95644.19;10213977;29;20605;-71
2021/10/01 01:14:57;;;;;;;16.95;9.88;;;;;;;10.74;100.00;95649.78;10213836;28;20036;-71
2021/10/01 01:20:28;;;;;;;12.65;8.55;;;;;;;10.80;100.00;95645.28;10200663;29;20058;-71
2021/10/01 01:25:50;;;;;;;16.50;9.35;;;;;;;10.89;100.00;95646.44;10213012;29;20135;-68
2021/10/01 01:30:51;;;;;;;15.82;8.65;;;;;;;10.84;100.00;95638.34;10198304;29;20247;-71
2021/10/01 01:35:56;;;;;;;17.27;10.02;;;;;;;10.82;100.00;95635.06;10198629;29;20028;-71
2021/10/01 01:41:02;;;;;;;15.75;8.57;;;;;;;10.78;100.00;95640.13;10196584;29;20063;-67
2021/10/01 01:46:03;;;;;;;17.25;10.05;;;;;;;10.91;100.00;95648.88;10211702;28;20023;-70
2021/10/01 01:51:04;;;;;;;18.17;8.93;;;;;;;10.99;100.00;95637.69;10196843;29;20040;-68
2021/10/01 01:56:06;;;;;;;14.77;9.23;;;;;;;11.11;100.00;95638.34;10212081;28;20028;-68
2021/10/01 02:01:07;;;;;;;15.82;8.05;;;;;;;11.15;100.00;95635.13;10212326;29;20039;-70
2021/10/01 02:06:09;;;;;;;14.45;9.63;;;;;;;11.13;100.00;95635.41;10197701;29;20035;-72
2021/10/01 02:11:11;;;;;;;14.35;8.32;;;;;;;11.10;100.00;95641.28;10197061;28;20122;-72
2021/10/01 02:16:13;;;;;;;14.77;8.63;;;;;;;11.15;100.00;95635.13;10212061;29;20034;-72
2021/10/01 02:21:15;;;;;;;12.95;8.60;;;;;;;11.09;100.00;95640.47;10196487;29;20052;-68
2021/10/01 02:26:36;;;;;;;12.65;7.93;;;;;;;11.14;100.00;95641.59;10165193;29;20040;-71
2021/10/01 02:32:17;;;;;;;14.40;8.13;;;;;;;11.16;100.00;95634.88;10196439;29;20031;-68
2021/10/01 02:37:19;;;;;;;18.30;8.25;;;;;;;11.07;100.00;95637.22;10195795;29;20035;-72
2021/10/01 02:42:21;;;;;;;16.25;9.07;;;;;;;10.96;100.00;95635.50;10195994;29;20493;-69
2021/10/01 02:47:29;;;;;;;12.88;8.55;;;;;;;11.05;100.00;95643.91;10211686;29;20027;-66
2021/10/01 02:52:48;;;;;;;14.02;8.18;;;;;;;11.09;100.00;95632.41;10195249;29;20036;-75
2021/10/01 02:57:59;;;;;;;15.43;8.15;;;;;;;11.09;100.00;95640.47;10219546;28;20058;-69
2021/10/01 03:03:11;;;;;;;12.02;8.55;;;;;;;11.12;100.00;95639.13;10202848;29;20814;-68
2021/10/01 03:08:15;;;;;;;18.33;8.82;;;;;;;11.05;100.00;95643.91;10185047;29;20122;-75
2021/10/01 03:13:19;;;;;;;15.50;8.20;;;;;;;11.09;100.00;95645.03;10203264;29;20414;-74
2021/10/01 03:18:20;;;;;;;13.95;8.43;;;;;;;11.10;100.00;95636.72;10186787;29;20060;-72
2021/10/01 03:23:21;;;;;;;11.48;7.95;;;;;;;11.02;100.00;95634.47;10201681;29;20035;-68
2021/10/01 03:28:22;;;;;;;15.45;8.02;;;;;;;10.99;100.00;95648.44;10192226;29;20500;-70
2021/10/01 03:33:28;;;;;;;16.00;8.30;;;;;;;11.01;100.00;95640.94;10205314;29;20043;-73
2021/10/01 03:38:28;;;;;;;12.82;8.32;;;;;;;11.02;100.00;95642.53;10201169;29;20032;-71
2021/10/01 03:43:29;;;;;;;19.48;8.35;;;;;;;11.08;100.00;95635.38;10216640;28;20035;-76
2021/10/01 03:48:29;;;;;;;14.32;8.82;;;;;;;11.08;100.00;95632.66;10214775;28;20553;-74
2021/10/01 03:53:30;;;;;;;13.30;8.60;;;;;;;10.98;100.00;95630.69;10213383;28;20517;-70
2021/10/01 03:58:30;;;;;;;19.48;9.75;;;;;;;10.90;100.00;95633.84;10213235;29;20035;-75
2021/10/01 04:03:30;;;;;;;18.77;9.18;;;;;;;11.00;100.00;95641.19;10215784;28;20090;-76
2021/10/01 04:08:31;;;;;;;17.63;8.57;;;;;;;11.06;100.00;95640.16;10198647;29;20027;-68
2021/10/01 04:13:32;;;;;;;11.98;9.07;;;;;;;11.06;100.00;95635.59;10215061;29;20524;-69
2021/10/01 04:18:33;;;;;;;16.55;8.48;;;;;;;11.10;100.00;95635.91;10199698;29;20600;-75
2021/10/01 04:23:33;;;;;;;16.17;8.40;;;;;;;10.97;100.00;95634.44;10178472;29;20032;-73
2021/10/01 04:28:34;;;;;;;17.67;9.10;;;;;;;11.00;100.00;95642.00;10182872;29;20030;-72
2021/10/01 04:33:35;;;;;;;23.25;9.43;;;;;;;11.07;100.00;95639.91;10196741;29;20034;-75
2021/10/01 04:38:36;;;;;;;14.00;9.75;;;;;;;11.19;100.00;95638.94;10196099;28;20386;-69
2021/10/01 04:43:37;;;;;;;20.83;9.15;;;;;;;11.13;100.00;95642.66;10197840;29;20094;-71
2021/10/01 04:48:37;;;;;;;19.80;10.63;;;;;;;11.18;100.00;95642.72;10197942;29;20131;-75
2021/10/01 04:53:38;;;;;;;16.15;9.77;;;;;;;11.16;100.00;95656.41;10197777;29;20063;-69
2021/10/01 04:58:38;;;;;;;18.48;9.32;;;;;;;11.20;100.00;95654.81;10199225;29;20608;-72
2021/10/01 05:03:39;;;;;;;15.60;8.88;;;;;;;11.29;100.00;95663.28;10197132;29;20032;-70
2021/10/01 05:08:39;;;;;;;15.77;8.33;;;;;;;11.36;100.00;95677.34;10198550;29;20032;-71
2021/10/01 05:13:40;;;;;;;16.10;10.23;;;;;;;11.44;100.00;95681.44;10212833;29;20382;-69
2021/10/01 05:18:40;;;;;;;22.93;9.77;;;;;;;11.50;100.00;95683.13;10197242;29;20172;-71
2021/10/01 05:23:40;;;;;;;16.13;10.00;;;;;;;11.52;100.00;95685.56;10196875;29;20602;-75
2021/10/01 05:28:41;;;;;;;27.77;8.03;;;;;;;11.60;100.00;95683.19;10212341;29;20371;-72
2021/10/01 05:33:41;;;;;;;23.08;9.20;;;;;;;11.68;100.00;95694.56;10159871;29;20268;-71
2021/10/01 05:38:42;;;;;;;18.38;9.30;;;;;;;11.66;100.00;95689.44;10141444;29;20034;-69
2021/10/01 05:43:42;;;;;;;22.05;8.02;;;;;;;11.63;100.00;95696.13;10172940;29;20032;-71
2021/10/01 05:48:47;;;;;;;19.17;8.23;;;;;;;11.55;100.00;95696.59;10185547;29;20030;-71
2021/10/01 05:54:00;;;;;;;19.45;8.85;;;;;;;11.67;100.00;95693.75;10212023;29;20286;-70
2021/10/01 05:59:01;;;;;;;19.92;8.70;;;;;;;11.55;100.00;95696.59;10195998;28;20035;-72
2021/10/01 06:04:02;;;;;;;24.85;10.05;;;;;;;11.61;100.00;95702.88;10212220;28;20046;-71
2021/10/01 06:09:03;;;;;;;13.38;8.43;;;;;;;11.69;100.00;95705.06;10211347;29;20020;-73
2021/10/01 06:14:06;;;;;;;19.88;9.43;;;;;;;11.72;100.00;95709.97;10211542;28;20106;-73
2021/10/01 06:19:06;;;;;;;22.50;8.77;;;;;;;11.77;100.00;95710.00;10156175;29;20698;-72
2021/10/01 06:24:07;;;;;;;18.85;8.32;;;;;;;11.70;100.00;95717.47;10154328;29;20036;-74
2021/10/01 06:29:07;;;;;;;13.23;8.10;;;;;;;11.70;100.00;95716.69;10190564;29;20028;-74
2021/10/01 06:34:08;;;;;;;10.70;7.23;;;;;;;11.76;100.00;95724.56;10202629;29;20781;-72
2021/10/01 06:39:10;;;;;;;13.77;7.72;;;;;;;11.83;100.00;95723.50;10216512;29;20286;-69
2021/10/01 06:44:14;;;;;;;19.88;8.27;;;;;;;12.11;100.00;95725.94;10200575;29;20059;-68
2021/10/01 08:19:37;;;;;;;9.70;4.75;;;;;;;14.86;52.33;95712.75;10199818;29;20078;-69
2021/10/01 08:24:37;;;;;;;8.07;4.78;;;;;;;14.62;53.02;95709.81;10214765;28;20048;-71
2021/10/01 08:29:38;;;;;;;10.13;4.90;;;;;;;14.66;52.86;95717.13;10198990;29;20019;-74
2021/10/01 08:34:39;;;;;;;10.60;4.85;;;;;;;14.48;54.12;95710.41;10213849;29;20649;-76
2021/10/01 08:39:40;;;;;;;8.10;4.43;;;;;;;14.60;51.40;95701.19;10214598;28;20030;-74
2021/10/01 08:44:42;;;;;;;7.38;4.28;;;;;;;15.07;49.99;95708.09;10199216;29;20413;-73
2021/10/01 08:49:50;;;;;;;10.27;4.28;;;;;;;15.46;50.34;95695.69;10213479;29;20410;-70
2021/10/01 08:54:51;;;;;;;6.43;3.85;;;;;;;15.81;48.04;95686.53;10212754;28;20281;-73
2021/10/01 08:59:51;;;;;;;7.78;3.85;;;;;;;16.62;46.86;95693.38;10213483;29;20023;-68
2021/10/01 09:04:55;;;;;;;7.88;3.78;;;;;;;17.86;44.21;95693.44;10197648;29;20059;-72
2021/10/01 09:09:56;;;;;;;8.10;4.32;;;;;;;18.68;42.37;95685.78;10199102;29;20031;-75
2021/10/01 09:14:58;;;;;;;8.20;4.22;;;;;;;18.77;43.11;95691.38;10212333;28;20087;-73
2021/10/01 09:19:59;;;;;;;11.35;4.25;;;;;;;18.90;41.93;95692.50;10212213;29;20502;-70
2021/10/01 09:25:17;;;;;;;9.10;4.20;;;;;;;19.21;42.28;95694.59;10212920;28;20031;-69
2021/10/01 09:30:21;;;;;;;14.60;4.00;;;;;;;19.26;39.62;95678.94;10197709;29;20469;-71
2021/10/01 09:35:23;;;;;;;11.98;4.90;;;;;;;19.23;41.58;95685.00;10196692;28;20051;-70
2021/10/01 09:40:24;;;;;;;11.88;4.35;;;;;;;18.32;41.42;95685.63;10197848;28;20134;-76
2021/10/01 09:45:24;;;;;;;12.52;4.60;;;;;;;18.57;42.69;95678.94;10212204;29;20028;-73
2021/10/01 09:50:27;;;;;;;13.85;3.92;;;;;;;19.89;40.29;95672.94;10197663;29;20114;-70
2021/10/01 09:55:38;;;;;;;8.60;3.45;;;;;;;21.09;38.59;95677.75;10195970;29;20040;-70
2021/10/01 10:00:46;;;;;;;12.70;3.88;;;;;;;21.22;37.69;95665.88;10197088;29;20032;-73
2021/10/01 10:05:56;;;;;;;;;;;;;;;20.88;38.50;95667.41;10201162;29;20123;-69
2021/10/01 10:10:58;;;;;;;5.80;4.20;;;;;;;21.09;37.35;95675.03;10219638;29;20361;-70
2021/10/01 10:16:11;;;;;;;9.55;5.20;;;;;;;20.30;37.62;95670.00;10187817;29;20032;-69
2021/10/01 10:21:12;;;;;;;8.38;4.05;;;;;;;19.68;38.82;95651.56;10203263;29;20059;-73
2021/10/01 10:26:13;;;;;;;7.95;3.95;;;;;;;18.83;41.05;95671.06;10203681;29;20039;-72
2021/10/01 10:31:17;;;;;;;12.18;4.80;;;;;;;18.32;42.68;95670.13;10202736;29;20498;-69
2021/10/01 10:36:44;;;;;;;7.28;4.57;;;;;;;17.55;44.42;95672.16;10187085;29;20035;-69
2021/10/01 10:42:00;;;;;;;9.18;4.90;;;;;;;17.18;44.92;95667.53;10201920;29;20042;-73
2021/10/01 10:47:00;;;;;;;10.18;4.18;;;;;;;17.04;45.81;95664.72;10218546;29;20031;-72
2021/10/01 10:52:17;;;;;;;11.50;4.93;;;;;;;17.38;45.95;95655.56;10203586;29;20493;-71
2021/10/01 11:02:41;;;;;;;7.80;4.20;;;;;;;17.71;45.10;95637.38;10203680;29;20054;-68
2021/10/01 11:08:14;;;;;;;13.80;4.25;;;;;;;17.68;45.76;95640.69;10187415;29;20046;-69
2021/10/01 11:13:24;;;;;;;7.32;4.50;;;;;;;17.59;45.56;95640.53;10200093;29;20122;-69
2021/10/01 11:18:26;;;;;;;9.82;4.82;;;;;;;17.11;46.21;95629.03;10216684;28;20056;-69
2021/10/01 11:23:27;;;;;;;14.23;4.93;;;;;;;17.08;46.84;95633.16;10185196;29;20563;-72
2021/10/01 11:28:32;;;;;;;7.73;5.23;;;;;;;17.05;46.63;95622.84;10200648;29;20036;-68
2021/10/01 11:33:32;;;;;;;7.85;5.22;;;;;;;16.90;47.45;95624.69;10185675;29;20390;-72
2021/10/01 11:38:33;;;;;;;9.80;4.85;;;;;;;16.92;47.79;95614.31;10216882;29;20034;-76
2021/10/01 11:43:54;;;;;;;9.52;5.65;;;;;;;16.78;48.31;95618.84;10216325;29;20118;-75
2021/10/01 11:48:55;;;;;;;8.07;5.03;;;;;;;17.10;51.68;95611.94;10215727;28;20050;-71
2021/10/01 11:54:15;;;;;;;11.63;5.43;;;;;;;17.14;47.99;95607.53;10200240;29;20766;-73
2021/10/01 11:59:16;;;;;;;9.00;5.25;;;;;;;17.09;48.57;95604.88;10215749;28;20493;-69
2021/10/01 12:04:16;;;;;;;6.43;5.07;;;;;;;16.89;47.65;95587.75;10151092;29;20040;-68
2021/10/01 12:09:19;;;;;;;12.70;5.53;;;;;;;16.42;48.33;95604.88;10215388;29;20028;-71
2021/10/01 12:14:21;;;;;;;11.20;5.25;;;;;;;16.13;49.84;95590.28;10199057;29;20031;-69
2021/10/01 12:19:25;;;;;;;11.95;5.80;;;;;;;16.60;50.21;95592.47;10214825;29;20498;-72
2021/10/01 12:24:26;;;;;;;12.23;5.00;;;;;;;16.95;48.75;95583.06;10215375;28;20043;-73
2021/10/01 12:29:27;;;;;;;8.53;5.27;;;;;;;17.08;48.09;95584.28;10213793;28;20158;-70
2021/10/01 12:34:33;;;;;;;9.68;5.70;;;;;;;17.01;49.92;95576.47;10214795;28;20279;-76
2021/10/01 12:39:38;;;;;;;9.82;6.43;;;;;;;16.80;48.63;95569.66;10213922;29;20027;-74
2021/10/01 12:44:42;;;;;;;11.38;5.97;;;;;;;16.37;49.59;95562.34;10214279;29;20035;-72
2021/10/01 12:49:55;;;;;;;11.70;5.28;;;;;;;16.63;49.87;95564.75;10199755;29;20027;-68
2021/10/01 12:55:12;;;;;;;9.13;5.40;;;;;;;16.67;49.17;95561.16;10214268;29;20595;-69
2021/10/01 13:00:19;;;;;;;9.45;5.70;;;;;;;16.18;51.81;95563.09;10213853;29;20028;-73
2021/10/01 13:05:28;;;;;;;97.55;11.77;;;;;;;15.89;51.01;95563.94;10212469;28;20405;-77
2021/10/01 13:10:30;;;;;;;12.10;6.25;;;;;;;15.93;51.84;95558.75;10213644;29;20204;-71
2021/10/01 13:15:38;;;;;;;11.70;5.70;;;;;;;16.09;51.13;95554.00;10213081;28;20059;-74
2021/10/01 13:20:46;;;;;;;8.80;5.38;;;;;;;16.17;49.74;95547.94;10212287;28;20062;-72
2021/10/01 13:25:52;;;;;;;7.83;4.70;;;;;;;16.24;48.24;95536.72;10197102;28;20047;-75
2021/10/01 13:30:53;;;;;;;14.00;5.70;;;;;;;15.83;49.73;95543.41;10212942;29;20028;-70
2021/10/01 13:35:56;;;;;;;9.77;6.30;;;;;;;15.41;51.10;95544.03;10212706;29;20032;-72
2021/10/01 13:40:58;;;;;;;8.77;5.03;;;;;;;15.08;53.10;95535.63;10194183;29;20108;-70
2021/10/01 13:46:00;;;;;;;12.00;5.78;;;;;;;15.19;53.88;95539.88;10195746;29;20028;-68
2021/10/01 13:51:00;;;;;;;11.13;6.38;;;;;;;15.16;53.24;95530.41;10197851;29;20032;-68
2021/10/01 13:56:01;;;;;;;9.60;5.53;;;;;;;15.42;55.16;95524.78;10197796;29;20435;-72
2021/10/01 14:01:03;;;;;;;8.77;5.75;;;;;;;15.65;52.79;95525.13;10212044;29;20085;-72
2021/10/01 14:06:03;;;;;;;9.07;5.50;;;;;;;15.75;53.21;95514.16;10197027;29;20405;-69
2021/10/01 14:11:04;;;;;;;12.90;6.17;;;;;;;15.67;53.91;95523.75;10195869;29;20034;-70
2021/10/01 14:16:04;;;;;;;12.30;6.55;;;;;;;15.93;51.60;95517.28;10211424;29;20302;-72
2021/10/01 14:21:05;;;;;;;7.88;5.13;;;;;;;16.16;50.71;95513.75;10195665;28;20520;-74
2021/10/01 14:26:05;;;;;;;8.75;6.18;;;;;;;16.30;52.25;95507.63;10197043;29;20478;-73
2021/10/01 14:31:06;;;;;;;13.30;7.80;;;;;;;16.32;53.84;95510.88;10196894;29;20075;-73
2021/10/01 14:36:06;;;;;;;8.90;5.43;;;;;;;16.09;52.46;95512.50;10210859;29;20039;-74
2021/10/01 14:41:07;;;;;;;6.15;4.55;;;;;;;15.87;52.29;95511.91;10211581;28;20801;-68
2021/10/01 14:46:07;;;;;;;15.45;5.28;;;;;;;15.76;54.07;95507.66;10238419;23;20026;-68
2021/10/01 14:51:08;;;;;;;10.88;5.30;;;;;;;15.67;53.81;95517.50;10263344;28;20039;-74
2021/10/01 14:56:08;;;;;;;8.73;5.35;;;;;;;15.56;54.96;95519.53;10283024;28;20113;-74
2021/10/01 15:01:10;;;;;;;12.00;5.43;;;;;;;15.55;55.33;95518.69;10281667;28;20027;-69
2021/10/01 15:06:11;;;;;;;12.40;4.38;;;;;;;15.42;54.54;95516.66;10281801;28;20280;-72
2021/10/01 15:11:11;;;;;;;13.50;5.97;;;;;;;15.32;56.35;95524.84;10280910;28;20038;-75
2021/10/01 15:16:12;;;;;;;10.15;4.55;;;;;;;15.20;57.35;95517.91;10281351;28;20274;-69
2021/10/01 15:21:12;;;;;;;14.65;5.47;;;;;;;15.02;59.57;95524.81;10282486;28;20179;-72
2021/10/01 15:26:13;;;;;;;10.10;5.82;;;;;;;14.91;61.29;95522.47;10281460;28;20086;-69
2021/10/01 15:31:14;;;;;;;9.70;5.88;;;;;;;14.77;62.05;95517.69;10281049;28;20129;-74
2021/10/01 15:36:14;;;;;;;10.93;6.00;;;;;;;14.64;65.68;95529.94;10281406;28;20109;-69
2021/10/01 15:41:15;;;;;;;15.18;5.97;;;;;;;14.65;64.95;95528.84;10281931;28;20034;-73
2021/10/01 15:46:17;;;;;;;13.57;6.70;;;;;;;14.53;67.19;95529.16;10279489;28;20046;-68
2021/10/01 15:51:17;;;;;;;16.65;6.38;;;;;;;14.43;67.98;95534.63;10296111;28;20023;-69
2021/10/01 15:56:18;;;;;;;12.93;6.30;;;;;;;14.31;69.46;95534.91;10255677;28;20027;-75
2021/10/01 16:01:19;;;;;;;8.50;5.40;;;;;;;14.15;68.87;95544.19;10240354;28;20477;-67
2021/10/01 16:06:20;;;;;;;21.55;6.85;;;;;;;13.96;70.19;95547.47;10278366;28;20747;-67
2021/10/01 16:11:20;;;;;;;11.40;5.67;;;;;;;13.84;73.23;95539.69;10252210;28;20027;-68
2021/10/01 16:16:21;;;;;;;15.95;6.72;;;;;;;13.59;75.00;95545.94;10256490;28;20266;-76
2021/10/01 16:21:21;;;;;;;7.10;5.43;;;;;;;13.47;76.30;95553.50;10299087;23;20064;-68
2021/10/01 16:26:21;;;;;;;16.35;6.10;;;;;;;13.38;77.99;95558.66;10267046;28;20034;-73
2021/10/01 16:31:22;;;;;;;8.63;5.82;;;;;;;13.23;79.12;95556.72;10221423;29;20031;-72
2021/10/01 16:36:22;;;;;;;16.77;7.63;;;;;;;13.18;80.65;95559.41;10237164;28;20847;-72
2021/10/01 16:41:23;;;;;;;15.52;7.40;;;;;;;13.13;82.66;95564.78;10237869;28;20298;-66
2021/10/01 16:46:23;;;;;;;15.30;6.25;;;;;;;13.11;82.10;95565.06;10236021;29;20046;-73
2021/10/01 16:51:24;;;;;;;16.02;6.75;;;;;;;13.13;81.85;95564.78;10237891;28;20030;-71
2021/10/01 16:56:24;;;;;;;13.73;6.43;;;;;;;13.08;85.90;95572.91;10236673;29;20023;-71
2021/10/01 17:01:24;;;;;;;10.87;5.90;;;;;;;13.13;89.59;95573.72;10235465;29;20465;-73
2021/10/01 17:06:25;;;;;;;19.13;6.63;;;;;;;13.13;87.17;95572.91;10203168;29;20318;-71
2021/10/01 17:11:25;;;;;;;8.85;5.82;;;;;;;13.19;82.99;95566.44;10197061;29;20271;-68
2021/10/01 17:16:26;;;;;;;12.23;6.10;;;;;;;13.17;81.81;95568.59;10212597;28;20023;-68
2021/10/01 17:21:28;;;;;;;11.87;6.53;;;;;;;13.11;86.89;95566.97;10265707;23;20313;-73
2021/10/01 17:26:28;;;;;;;9.85;6.65;;;;;;;13.16;84.07;95578.59;10276106;28;20344;-71
2021/10/01 17:31:29;;;;;;;15.70;6.82;;;;;;;13.11;84.91;95575.06;10275909;28;20068;-72
2021/10/01 17:36:29;;;;;;;16.02;6.13;;;;;;;13.05;86.35;95576.16;10275078;28;20117;-68
2021/10/01 17:41:30;;;;;;;10.63;6.15;;;;;;;13.03;85.01;95589.09;10256931;28;20038;-72
2021/10/01 17:46:30;;;;;;;13.50;6.85;;;;;;;12.82;87.94;95591.72;10234957;29;20126;-69
2021/10/01 17:51:31;;;;;;;9.05;6.30;;;;;;;12.70;89.97;95600.06;10236670;28;20066;-73
2021/10/01 17:56:31;;;;;;;11.75;6.90;;;;;;;12.73;90.14;95599.53;10274836;23;20110;-72
2021/10/01 18:01:32;;;;;;;13.03;6.67;;;;;;;12.63;91.30;95586.84;10236582;28;20023;-74
2021/10/01 18:06:33;;;;;;;9.73;6.72;;;;;;;12.64;91.34;95598.41;10241380;28;21020;-71
2021/10/01 18:11:34;;;;;;;12.85;6.88;;;;;;;12.62;92.00;95598.69;10235338;28;20042;-68
2021/10/01 18:16:35;;;;;;;10.20;5.60;;;;;;;12.49;89.91;95607.28;10234045;28;20413;-73
2021/10/01 18:21:36;;;;;;;12.50;5.80;;;;;;;12.52;90.46;95605.94;10251102;28;20061;-68
2021/10/01 18:26:36;;;;;;;12.63;6.60;;;;;;;12.35;91.92;95606.97;10240111;28;20594;-68
2021/10/01 18:31:37;;;;;;;13.82;6.93;;;;;;;12.39;90.94;95609.91;10244195;28;20046;-71
2021/10/01 18:36:37;;;;;;;9.40;6.18;;;;;;;12.30;90.65;95612.31;10258356;28;20481;-70
2021/10/01 18:41:38;;;;;;;13.02;6.75;;;;;;;12.35;92.25;95615.03;10242353;28;20031;-72
2021/10/01 18:46:38;;;;;;;14.13;6.43;;;;;;;12.24;94.30;95611.47;10257280;28;20050;-67
2021/10/01 18:51:38;;;;;;;8.07;6.20;;;;;;;12.17;94.14;95613.59;10241654;28;20469;-67
2021/10/01 18:56:40;;;;;;;11.93;6.00;;;;;;;12.17;94.57;95607.38;10241758;29;20143;-67
2021/10/01 19:01:40;;;;;;;11.32;5.72;;;;;;;12.21;94.83;95627.34;10254551;28;20740;-71
2021/10/01 19:06:41;;;;;;;11.88;6.43;;;;;;;12.12;94.20;95614.38;10241795;28;20054;-73
2021/10/01 19:11:41;;;;;;;11.35;6.70;;;;;;;12.05;95.46;95621.06;10257538;28;20038;-72
2021/10/01 19:16:42;;;;;;;11.10;5.82;;;;;;;11.89;95.66;95620.13;10240747;29;20038;-71
2021/10/01 19:21:44;;;;;;;13.05;7.50;;;;;;;11.78;97.22;95628.13;10241050;29;20055;-71
2021/10/01 19:32:04;;;;;;;20.92;6.82;;;;;;;11.74;97.37;95627.03;10241670;29;20449;-68
2021/10/01 19:37:06;;;;;;;20.88;7.43;;;;;;;11.59;99.12;95635.00;10239796;28;20313;-67
2021/10/01 19:42:06;;;;;;;14.13;6.82;;;;;;;11.55;100.00;95631.19;10255730;28;20034;-74
2021/10/01 19:47:07;;;;;;;9.55;5.72;;;;;;;11.44;100.00;95627.59;10256953;28;20035;-71
2021/10/01 19:52:08;;;;;;;13.02;5.57;;;;;;;11.31;100.00;95626.16;10232948;29;20065;-70
2021/10/01 19:57:09;;;;;;;9.05;5.85;;;;;;;11.18;100.00;95627.38;10218726;29;20043;-72
2021/10/01 20:02:11;;;;;;;6.30;5.00;;;;;;;11.07;100.00;95617.59;10228203;28;20027;-73
2021/10/01 20:07:12;;;;;;;8.50;5.00;;;;;;;10.97;100.00;95609.41;10221594;29;20313;-71
2021/10/01 20:12:14;;;;;;;8.05;4.50;;;;;;;11.10;100.00;95623.25;10253680;28;20035;-74
2021/10/01 20:17:15;;;;;;;8.10;5.38;;;;;;;10.96;100.00;95613.19;10254912;28;20545;-72
2021/10/01 20:38:35;;;;;;;9.50;5.40;;;;;;;10.86;100.00;95611.19;10199374;29;20023;-70
2021/10/01 20:48:54;;;;;;;10.38;7.07;;;;;;;10.54;100.00;95603.84;10237007;28;20615;-71
2021/10/01 20:53:55;;;;;;;9.20;4.75;;;;;;;10.39;100.00;95607.97;10248049;28;20055;-68
2021/10/01 20:59:02;;;;;;;9.07;5.27;;;;;;;10.30;100.00;95609.44;10231094;29;20119;-68
2021/10/01 21:04:33;;;;;;;9.35;4.97;;;;;;;10.19;100.00;95611.19;10234769;28;20299;-73
2021/10/01 21:41:38;;;;;;;8.32;4.10;;;;;;;10.06;100.00;95608.84;10236443;28;19922;-72
2021/10/01 21:51:50;;;;;;;9.45;3.65;;;;;;;10.08;100.00;95612.13;10237411;28;20058;-73
2021/10/01 21:56:52;;;;;;;5.18;3.80;;;;;;;10.16;100.00;95605.47;10236583;28;20131;-71
2021/10/01 22:01:52;;;;;;;7.72;3.47;;;;;;;10.29;100.00;95601.66;10243612;28;20031;-69
2021/10/01 22:12:35;;;;;;;12.70;4.00;;;;;;;10.39;100.00;95593.72;10243874;28;20039;-72
2021/10/01 22:22:38;;;;;;;6.47;3.80;;;;;;;10.29;100.00;95586.31;10245166;29;20445;-74
2021/10/01 22:27:40;;;;;;;7.97;3.70;;;;;;;10.23;100.00;95580.06;10242417;28;20028;-71
2021/10/01 22:32:42;;;;;;;4.57;3.65;;;;;;;10.15;100.00;95577.03;10242752;28;20106;-73
2021/10/01 22:37:43;;;;;;;9.32;4.05;;;;;;;10.10;100.00;95591.19;10211818;28;20024;-74
2021/10/01 22:42:56;;;;;;;7.53;4.65;;;;;;;9.97;100.00;95581.63;10234136;29;20386;-75
2021/10/01 22:47:58;;;;;;;10.07;4.43;;;;;;;9.88;100.00;95583.94;10242440;29;20039;-71
2021/10/01 22:53:00;;;;;;;4.55;3.78;;;;;;;9.83;100.00;95580.34;10242394;29;20086;-75
2021/10/01 22:58:01;;;;;;;6.90;4.07;;;;;;;9.80;100.00;95575.50;10242586;28;20066;-74
2021/10/01 23:03:01;;;;;;;6.03;3.80;;;;;;;9.71;100.00;95578.59;10241243;29;20034;-69
2021/10/01 23:08:04;;;;;;;7.05;3.78;;;;;;;9.64;100.00;95577.13;10241484;28;20524;-67
